Weather History for KMWM - March, 2013

Change the Weather History Date:

Tuesday, March 19, 2013

  Actual Average Record
Temperature  
Mean Temperature 16 °F -  
Max Temperature 24 °F 41 °F 75 °F (2012)
Min Temperature 8 °F 24 °F -1 °F (1951)
Degree Days  
Heating Degree Days 49    
Moisture  
Dew Point 7 °F    
Average Humidity 71    
Maximum Humidity 85    
Minimum Humidity 58    
Precipitation  
Precipitation 0.00 in - - ()
Sea Level Pressure  
Sea Level Pressure 30.11 in    
Wind  
Wind Speed 17 mph (NW)    
Max Wind Speed 25 mph    
Max Gust Speed 31 mph    
Visibility 10 miles    
Events Snow    
Averages and records for this station are not official NWS values.
T = Trace of Precipitation, MM = Missing Value Source: NWS Daily Summary

Daily Weather History Graph

Daily Weather History Graph

Search for Another Location

Airport or City:

Trip Planner

Search our weather history database for the weather conditions in past years. The results will help you decide how hot, cold, wet, or windy it might be!

Date:

Astronomy

Mar. 19, 2013 Rise Set
Actual Time 7:24 AM CDT 7:31 PM CDT
Civil Twilight 6:56 AM CDT 8:00 PM CDT
Nautical Twilight 6:22 AM CDT 8:34 PM CDT
Astronomical Twilight 5:48 AM CDT 9:08 PM CDT
Moon 12:04 PM CDT (3/19) 2:30 AM CDT (3/19)
Length of Visible Light 13h 04m
Length of Day
12h 07m
Waxing Crescent, 50% of the Moon is Illuminated
Mar 19
Waxing Crescent
Mar 19
First Quarter
Mar 27
Full
Apr 2
Last Quarter
Apr 10
New

Hourly Weather History & Observations

Time (CDT) Temp. Windchill Dew Point Humidity Pressure Visibility Wind Dir Wind Speed Gust Speed Precip Events Conditions
12:13 AM 10.4 °F -8.6 °F 5.0 °F 79% 29.93 in 10.0 mi WNW 20.7 mph 26.5 mph N/A   Clear
12:32 AM 10.4 °F -8.2 °F 5.0 °F 79% 29.93 in 10.0 mi WNW 19.6 mph 31.1 mph N/A   Clear
1:13 AM 10.4 °F -8.6 °F 3.2 °F 73% 29.93 in 10.0 mi WNW 20.7 mph 27.6 mph N/A   Clear
1:32 AM 10.4 °F -7.7 °F 3.2 °F 73% 29.94 in 10.0 mi WNW 18.4 mph 25.3 mph N/A   Clear
1:52 AM 10.4 °F -8.2 °F 3.2 °F 73% 29.94 in 10.0 mi WNW 19.6 mph 24.2 mph N/A   Clear
2:13 AM 10.4 °F -8.2 °F 3.2 °F 73% 29.94 in 10.0 mi WNW 19.6 mph 26.5 mph N/A   Clear
2:32 AM 10.4 °F -8.2 °F 3.2 °F 73% 29.95 in 10.0 mi NW 19.6 mph 24.2 mph N/A   Clear
2:53 AM 10.4 °F -7.7 °F 3.2 °F 73% 29.97 in 10.0 mi WNW 18.4 mph 26.5 mph N/A   Clear
3:13 AM 10.4 °F -7.7 °F 3.2 °F 73% 29.98 in 10.0 mi WNW 18.4 mph 25.3 mph N/A   Clear
3:32 AM 10.4 °F -8.6 °F 3.2 °F 73% 29.98 in 10.0 mi WNW 20.7 mph 25.3 mph N/A   Clear
3:53 AM 10.4 °F -7.7 °F 3.2 °F 73% 29.99 in 10.0 mi WNW 18.4 mph - N/A   Clear
4:13 AM 8.6 °F -9.5 °F 3.2 °F 79% 29.99 in 10.0 mi WNW 17.3 mph 21.9 mph N/A   Clear
4:32 AM 8.6 °F -8.9 °F 3.2 °F 79% 29.99 in 10.0 mi WNW 16.1 mph - N/A   Clear
4:53 AM 8.6 °F -8.9 °F 3.2 °F 79% 29.98 in 10.0 mi WNW 16.1 mph 21.9 mph N/A   Clear
5:13 AM 8.6 °F -7.7 °F 3.2 °F 79% 29.99 in 10.0 mi WNW 13.8 mph - N/A   Clear
5:32 AM 8.6 °F -8.3 °F 3.2 °F 79% 29.99 in 10.0 mi WNW 15.0 mph - N/A   Clear
5:53 AM 8.6 °F -8.3 °F 3.2 °F 79% 30.01 in 10.0 mi West 15.0 mph 19.6 mph N/A   Clear
6:13 AM 8.6 °F -7.0 °F 3.2 °F 79% 30.01 in 10.0 mi West 12.7 mph - N/A   Clear
6:52 AM 8.6 °F -5.5 °F 3.2 °F 79% 30.03 in 10.0 mi WNW 10.4 mph - N/A   Clear
7:13 AM 8.6 °F -5.5 °F 3.2 °F 79% 30.03 in 10.0 mi WNW 10.4 mph - N/A   Clear
7:32 AM 8.6 °F -5.5 °F 1.4 °F 73% 30.05 in 10.0 mi WNW 10.4 mph - N/A   Clear
7:52 AM 8.6 °F -6.3 °F 1.4 °F 73% 30.06 in 10.0 mi WNW 11.5 mph - N/A   Clear
8:12 AM 10.4 °F -3.3 °F 1.4 °F 67% 30.07 in 10.0 mi WNW 10.4 mph - N/A   Clear
8:32 AM 10.4 °F -7.2 °F 1.4 °F 67% 30.09 in 10.0 mi WNW 17.3 mph 20.7 mph N/A   Clear
8:53 AM 10.4 °F -5.4 °F 3.2 °F 73% 30.09 in 10.0 mi WNW 13.8 mph - N/A   Clear
9:12 AM 12.2 °F -3.7 °F 3.2 °F 67% 30.10 in 10.0 mi WNW 15.0 mph - N/A   Clear
9:32 AM 12.2 °F -3.1 °F 3.2 °F 67% 30.10 in 10.0 mi WNW 13.8 mph 21.9 mph N/A   Clear
9:53 AM 14.0 °F -1.4 °F 3.2 °F 62% 30.10 in 10.0 mi NW 15.0 mph - N/A   Scattered Clouds
10:12 AM 15.8 °F 2.1 °F 3.2 °F 58% 30.09 in 10.0 mi NW 12.7 mph - N/A   Scattered Clouds
10:32 AM 15.8 °F 0.9 °F 3.2 °F 58% 30.10 in 10.0 mi NW 15.0 mph 19.6 mph N/A   Scattered Clouds
10:53 AM 15.8 °F 0.9 °F 3.2 °F 58% 30.10 in 10.0 mi NNW 15.0 mph - N/A   Mostly Cloudy
11:12 AM 15.8 °F 0.9 °F 3.2 °F 58% 30.10 in 10.0 mi NNW 15.0 mph 18.4 mph N/A   Scattered Clouds
11:32 AM 17.6 °F 3.7 °F 6.8 °F 63% 30.12 in 10.0 mi NNW 13.8 mph - N/A   Mostly Cloudy
11:53 AM 17.6 °F 3.2 °F 6.8 °F 63% 30.12 in 10.0 mi NNW 15.0 mph 19.6 mph N/A   Overcast
12:12 PM 17.6 °F 3.7 °F 6.8 °F 63% 30.13 in 10.0 mi NW 13.8 mph 18.4 mph N/A   Overcast
12:32 PM 17.6 °F 4.3 °F 5.0 °F 58% 30.13 in 10.0 mi NW 12.7 mph - N/A   Overcast
12:52 PM 17.6 °F 5.0 °F 5.0 °F 58% 30.13 in 10.0 mi WNW 11.5 mph - N/A   Mostly Cloudy
1:12 PM 19.4 °F 7.2 °F 6.8 °F 58% 30.13 in 10.0 mi NW 11.5 mph - N/A   Scattered Clouds
1:33 PM 21.2 °F 8.9 °F 8.6 °F 58% 30.13 in 10.0 mi WNW 12.7 mph - N/A   Scattered Clouds
1:52 PM 21.2 °F 7.3 °F 8.6 °F 58% 30.12 in 10.0 mi WNW 16.1 mph 20.7 mph N/A   Scattered Clouds
2:12 PM 21.2 °F 8.3 °F 10.4 °F 63% 30.13 in 10.0 mi WNW 13.8 mph 20.7 mph N/A   Scattered Clouds
2:33 PM 21.2 °F 7.8 °F 12.2 °F 68% 30.13 in 10.0 mi West 15.0 mph 19.6 mph N/A   Mostly Cloudy
2:52 PM 23.0 °F 10.1 °F 12.2 °F 63% 30.12 in 10.0 mi WNW 15.0 mph 23.0 mph N/A   Overcast
3:12 PM 24.8 °F 12.9 °F 14.0 °F 64% 30.12 in 10.0 mi WNW 13.8 mph 20.7 mph N/A   Overcast
3:33 PM 24.8 °F 11.1 °F 12.2 °F 59% 30.13 in 10.0 mi WNW 18.4 mph 21.9 mph N/A   Overcast
3:52 PM 24.8 °F 11.5 °F 14.0 °F 64% 30.13 in 10.0 mi WNW 17.3 mph - N/A   Overcast
4:12 PM 24.8 °F 11.5 °F 14.0 °F 64% 30.14 in 10.0 mi NW 17.3 mph 25.3 mph N/A   Overcast
4:33 PM 24.8 °F 10.3 °F 14.0 °F 64% 30.15 in 10.0 mi NW 20.7 mph - N/A   Overcast
4:52 PM 23.0 °F 7.6 °F 12.2 °F 63% 30.16 in 10.0 mi NW 21.9 mph 26.5 mph N/A   Overcast
5:12 PM 21.2 °F 5.6 °F 12.2 °F 68% 30.17 in 10.0 mi NW 20.7 mph - N/A   Overcast
5:33 PM 19.4 °F 3.2 °F 10.4 °F 68% 30.18 in 10.0 mi NW 20.7 mph - N/A Snow Light Snow
5:52 PM 19.4 °F 4.5 °F 10.4 °F 68% 30.19 in 10.0 mi NW 17.3 mph 25.3 mph N/A Snow Light Snow
6:12 PM 19.4 °F 2.5 °F 10.4 °F 68% 30.19 in 10.0 mi NW 23.0 mph 27.6 mph N/A   Overcast
6:32 PM 19.4 °F 2.8 °F 10.4 °F 68% 30.21 in 10.0 mi NW 21.9 mph 25.3 mph N/A   Overcast
6:52 PM 17.6 °F 0.5 °F 10.4 °F 73% 30.21 in 10.0 mi NNW 21.9 mph 26.5 mph N/A   Overcast
7:12 PM 17.6 °F 1.3 °F 10.4 °F 73% 30.22 in 10.0 mi NW 19.6 mph - N/A   Mostly Cloudy
7:32 PM 15.8 °F -3.1 °F 8.6 °F 73% 30.22 in 10.0 mi NW 25.3 mph - N/A   Scattered Clouds
7:53 PM 15.8 °F -0.6 °F 8.6 °F 73% 30.23 in 10.0 mi NW 18.4 mph 24.2 mph N/A   Clear
8:12 PM 15.8 °F -0.6 °F 8.6 °F 73% 30.23 in 10.0 mi NW 18.4 mph 25.3 mph N/A   Clear
8:53 PM 14.0 °F -2.0 °F 8.6 °F 79% 30.24 in 10.0 mi NW 16.1 mph - N/A   Clear
9:13 PM 14.0 °F -1.4 °F 8.6 °F 79% 30.24 in 10.0 mi WNW 15.0 mph 19.6 mph N/A   Scattered Clouds
9:32 PM 14.0 °F -2.5 °F 8.6 °F 79% 30.24 in 10.0 mi NW 17.3 mph 23.0 mph N/A   Scattered Clouds
9:53 PM 14.0 °F -3.0 °F 8.6 °F 79% 30.24 in 10.0 mi NW 18.4 mph 23.0 mph N/A   Scattered Clouds
10:13 PM 14.0 °F -2.0 °F 8.6 °F 79% 30.25 in 10.0 mi NW 16.1 mph - N/A   Scattered Clouds
10:32 PM 14.0 °F -5.1 °F 8.6 °F 79% 30.24 in 5.0 mi NW 24.2 mph 29.9 mph N/A Snow Light Snow
10:53 PM 12.2 °F -5.3 °F 8.6 °F 85% 30.25 in 10.0 mi NW 18.4 mph 29.9 mph N/A   Overcast
11:13 PM 12.2 °F -7.1 °F 8.6 °F 85% 30.25 in 7.0 mi NW 23.0 mph 29.9 mph N/A Snow Light Snow
11:32 PM 12.2 °F -6.7 °F 6.8 °F 79% 30.26 in 10.0 mi NW 21.9 mph 29.9 mph N/A Snow Light Snow
11:53 PM 12.2 °F -6.7 °F 6.8 °F 79% 30.26 in 10.0 mi NW 21.9 mph 27.6 mph N/A   Mostly Cloudy